Main page
METAR-TAF:

METAR-TAF

Airports :

Lea County Regional Airport

Hobbs, New Mexico, United States

latitude: 32-41N, longitude: 103-13W, elevation: 3657 ft

Current weather observation

The report was made 14 minutes ago, at 03:35 UTC
Calm wind
Temperature 79°F
Humidity 21%
Pressure 29.94 in. Hg
Visibility: 10 miles
Clear sky

METAR: KHOB 260335Z AUTO 00000KT 10SM CLR 26/02 A2994 RMK AO2

Time: 21:49 (03:49 UTC)

Forecast

The report was made 4 hours and 20 minutes ago, at 23:29 UTC
Forecast valid from 26 at 00 UTC to 26 at 24 UTC
Wind 9 mph from the Southwest with gusts up to 21 mph
Visibility: 6 miles
Clear sky
From 26 at 0300 UTC
Wind 6 mph from the South
Visibility: 6 miles
Clear sky
From 26 at 1600 UTC
Wind 10 mph from the South/Southwest
Visibility: 6 miles
Clear sky

TAF: KHOB 252329Z 2600/2624 22008G18KT P6SM SKC FM260300 18005KT P6SM SKC FM261600 20009KT P6SM SKC

Weather observations and forecasts of more than 4000 airports (METAR and TAF reports).

The available stations are represented by yellow and red dots on the map.

Hover mouse over dot to see the name of the station.

Then click to see weather observations and forecasts.

To change the map : click on the green buttons with a black cross to zoom in, on the green button with a dash to zoom out, or on the green arrows for adjacent maps.


METAR-TAF: